Meteorología y climatología de Navarra
Datos de la estación - Meteo Navarra

Estación de Arangoiti GN

Altitud 1353 m.


Datos desde el 02/08/2020 hasta el 03/08/2020 en horario solar
Los datos son PROVISIONALES

Anterior Página 1 de 1 Siguiente Descargar: Formato para Excel 2000 o superior   Formato csv   Formato para OpenOffice Calc
Fecha Temperatura Humedad relativa Radiación global Insolación Precipitación Vel. viento 10 m Vel. viento 10 m Dir. viento 10 m
ºC % W/m² s l/m² m/s km/h º
02/08/2020 0:00 13.2 90 0.0 0 0.0 15.7 56.3 23
02/08/2020 0:10 13.0 91 0.0 0 0.0 14.8 53.4 21
02/08/2020 0:20 13.0 90 0.0 0 0.0 14.6 52.5 21
02/08/2020 0:30 12.7 92 0.0 0 0.0 13.6 49.1 20
02/08/2020 0:40 12.9 92 0.0 0 0.0 13.1 47.3 22
02/08/2020 0:50 12.7 91 0.0 0 0.0 12.7 45.6 25
02/08/2020 1:00 12.7 92 0.0 0 0.0 12.3 44.1 22
02/08/2020 1:10 12.8 93 0.0 0 0.0 11.8 42.4 20
02/08/2020 1:20 12.9 92 0.0 0 0.0 11.3 40.6 19
02/08/2020 1:30 12.6 93 0.0 0 0.0 11.1 40.1 18
02/08/2020 1:40 12.8 92 0.0 0 0.0 11.0 39.6 19
02/08/2020 1:50 12.5 95 0.0 0 0.0 10.4 37.6 17
02/08/2020 2:00 12.9 93 0.0 0 0.0 10.1 36.5 20
02/08/2020 2:10 12.2 98 0.0 0 0.0 10.5 37.7 13
02/08/2020 2:20 12.1 98 0.0 0 0.0 11.8 42.4 1
02/08/2020 2:30 12.0 98 0.0 0 0.0 12.3 44.1 353
02/08/2020 2:40 11.8 99 0.0 0 0.0 14.1 50.6 352
02/08/2020 2:50 11.8 99 0.0 0 0.0 13.2 47.4 354
02/08/2020 3:00 11.7 99 0.0 0 0.0 12.0 43.3 354
02/08/2020 3:10 11.6 98 0.0 0 0.0 11.9 42.8 354
02/08/2020 3:20 11.4 98 0.0 0 0.0 13.5 48.5 354
02/08/2020 3:30 11.3 99 0.0 0 0.0 13.3 47.8 1
02/08/2020 3:40 11.7 98 0.0 0 0.0 13.5 48.5 8
02/08/2020 3:50 11.7 98 0.0 0 0.0 13.0 46.7 8
02/08/2020 4:00 11.5 98 0.0 0 0.0 12.8 45.9 13
02/08/2020 4:10 11.9 98 0.0 0 0.0 11.9 43.0 17
02/08/2020 4:20 11.7 98 0.0 0 0.0 12.6 45.3 17
02/08/2020 4:30 11.4 98 0.0 0 0.0 12.7 45.8 18
02/08/2020 4:40 11.3 98 0.0 0 0.0 13.0 46.8 14
02/08/2020 4:50 11.4 98 0.2 0 0.0 13.4 48.1 15
02/08/2020 5:00 11.5 98 15.2 0 0.0 13.2 47.7 15
02/08/2020 5:10 11.2 98 20.9 0 0.0 13.1 47.3 15
02/08/2020 5:20 11.4 98 36.4 492 0.0 12.2 43.8 15
02/08/2020 5:30 11.0 98 56.6 600 0.0 12.3 44.2 11
02/08/2020 5:40 11.0 98 83.4 600 0.0 12.1 43.4 8
02/08/2020 5:50 11.3 98 101.1 600 0.0 11.7 42.0 4
02/08/2020 6:00 11.1 97 122.1 600 0.0 11.4 41.1 4
02/08/2020 6:10 11.4 97 151.2 600 0.0 11.3 40.6 5
02/08/2020 6:20 11.4 97 183.0 600 0.0 11.3 40.8 7
02/08/2020 6:30 11.4 97 204.4 600 0.0 11.3 40.6 6
02/08/2020 6:40 11.2 97 248.4 600 0.0 10.8 38.8 7
02/08/2020 6:50 11.6 97 289.6 600 0.0 10.8 39.0 7
02/08/2020 7:00 11.4 97 316.9 600 0.0 11.4 41.2 7
02/08/2020 7:10 11.5 97 350.8 600 0.0 12.0 43.0 7
02/08/2020 7:20 11.7 97 369.1 600 0.0 12.2 44.0 2
02/08/2020 7:30 11.9 96 361.6 590 0.0 12.5 44.9 1
02/08/2020 7:40 12.1 97 402.0 600 0.0 12.2 43.7 1
02/08/2020 7:50 12.2 97 445.5 596 0.0 11.8 42.4 3
02/08/2020 8:00 12.5 96 510.8 582 0.0 11.8 42.4 6
02/08/2020 8:10 12.5 95 547.8 594 0.0 11.4 41.1 7
02/08/2020 8:20 13.4 92 539.5 600 0.0 11.4 40.9 4
02/08/2020 8:30 13.7 89 530.1 580 0.0 11.2 40.2 1
02/08/2020 8:40 14.4 85 616.4 546 0.0 11.3 40.5 1
02/08/2020 8:50 14.8 82 646.0 600 0.0 11.7 42.0 358
02/08/2020 9:00 15.5 80 751.3 600 0.0 10.8 38.8 2
02/08/2020 9:10 15.6 78 721.9 600 0.0 11.4 41.1 354
02/08/2020 9:20 16.4 72 822.0 600 0.0 11.7 42.1 354
02/08/2020 9:30 16.5 73 795.7 600 0.0 11.2 40.3 356
02/08/2020 9:40 16.7 71 811.0 600 0.0 10.9 39.1 355
02/08/2020 9:50 17.1 71 826.0 600 0.0 11.6 41.6 349
02/08/2020 10:00 16.7 72 944.0 584 0.0 13.1 47.1 349
02/08/2020 10:10 16.3 73 848.0 600 0.0 13.1 47.1 350
02/08/2020 10:20 16.6 70 747.3 594 0.0 12.8 46.1 355
02/08/2020 10:30 16.5 70 735.8 458 0.0 12.5 44.9 357
02/08/2020 10:40 15.9 73 809.0 600 0.0 12.7 45.7 359
02/08/2020 10:50 16.6 71 801.0 600 0.0 11.9 42.8 354
02/08/2020 11:00 16.8 69 922.0 600 0.0 12.2 44.0 352
02/08/2020 11:10 17.0 69 932.0 600 0.0 11.9 43.0 355
02/08/2020 11:20 16.7 68 892.0 600 0.0 12.4 44.7 356
02/08/2020 11:30 17.1 68 932.0 600 0.0 13.0 46.7 357
02/08/2020 11:40 17.0 68 951.0 600 0.0 13.7 49.2 357
02/08/2020 11:50 17.1 68 979.0 600 0.0 13.9 49.9 355
02/08/2020 12:00 17.6 67 975.0 600 0.0 13.1 47.1 358
02/08/2020 12:10 17.4 66 990.0 600 0.0 12.6 45.4 358
02/08/2020 12:20 17.1 67 993.0 600 0.0 12.4 44.6 354
02/08/2020 12:30 17.4 67 994.0 600 0.0 12.7 45.5 358
02/08/2020 12:40 17.2 66 1020.0 600 0.0 13.1 47.1 359
02/08/2020 12:50 17.9 64 1005.0 600 0.0 13.3 48.0 354
02/08/2020 13:00 17.5 66 1002.0 600 0.0 12.6 45.3 2
02/08/2020 13:10 17.6 64 1001.0 600 0.0 13.0 46.8 5
02/08/2020 13:20 18.9 60 1122.0 600 0.0 11.5 41.5 5
02/08/2020 13:30 18.4 61 1013.0 600 0.0 11.8 42.6 13
02/08/2020 13:40 18.5 62 713.2 600 0.0 12.5 45.1 1
02/08/2020 13:50 17.7 65 684.0 560 0.0 13.3 47.7 356
02/08/2020 14:00 16.7 69 643.6 392 0.0 14.1 50.7 351
02/08/2020 14:10 15.6 73 377.8 0 0.0 16.5 59.5 351
02/08/2020 14:20 15.1 73 315.4 0 0.0 16.7 60.2 357
02/08/2020 14:30 14.9 69 312.5 0 0.0 16.4 58.9 357
02/08/2020 14:40 14.8 68 394.3 216 0.0 16.6 59.9 360
02/08/2020 14:50 15.0 68 435.2 520 0.0 16.8 60.6 358
02/08/2020 15:00 15.0 69 486.1 600 0.0 16.6 59.6 357
02/08/2020 15:10 15.3 69 579.9 600 0.0 16.7 60.0 359
02/08/2020 15:20 15.5 69 597.1 600 0.0 16.8 60.6 359
02/08/2020 15:30 15.7 69 562.5 600 0.0 16.3 58.8 360
02/08/2020 15:40 15.0 72 405.5 460 0.0 16.5 59.4 359
02/08/2020 15:50 14.3 75 354.0 452 0.0 17.2 62.0 360
02/08/2020 16:00 14.7 73 394.7 600 0.0 16.8 60.4 2
02/08/2020 16:10 14.4 74 325.8 250 0.0 17.3 62.2 7
02/08/2020 16:20 13.7 78 227.3 0 0.0 17.7 63.5 20
02/08/2020 16:30 13.3 77 229.1 0 0.0 18.2 65.4 18
02/08/2020 16:40 13.2 78 226.1 22 0.0 18.1 65.2 17
02/08/2020 16:50 13.3 77 278.3 566 0.0 18.2 65.7 18
02/08/2020 17:00 13.3 77 275.5 600 0.0 18.4 66.3 17
02/08/2020 17:10 13.1 77 247.2 516 0.0 18.3 66.0 14
02/08/2020 17:20 13.1 76 262.6 600 0.0 17.5 63.1 14
02/08/2020 17:30 13.6 71 370.8 600 0.0 18.6 67.1 8
02/08/2020 17:40 13.4 70 303.5 600 0.0 18.4 66.4 6
02/08/2020 17:50 14.0 68 190.8 326 0.0 17.6 63.4 15
02/08/2020 18:00 14.0 70 215.1 564 0.0 18.2 65.3 8
02/08/2020 18:10 13.0 72 155.1 600 0.0 19.2 69.0 0
02/08/2020 18:20 12.7 75 115.1 356 0.0 19.9 71.5 1
02/08/2020 18:30 12.3 79 96.5 284 0.0 19.7 70.9 360
02/08/2020 18:40 11.8 81 72.9 408 0.0 19.1 68.6 2
02/08/2020 18:50 11.7 83 50.9 0 0.0 19.6 70.5 3
02/08/2020 19:00 11.4 84 40.4 494 0.0 19.3 69.5 4
02/08/2020 19:10 11.1 85 29.4 266 0.0 19.5 70.3 5
02/08/2020 19:20 10.9 86 18.4 0 0.0 18.6 66.9 4
02/08/2020 19:30 10.8 87 3.9 0 0.0 18.9 68.2 4
02/08/2020 19:40 10.6 88 0.0 0 0.0 19.0 68.4 2
02/08/2020 19:50 10.5 89 0.0 0 0.0 19.6 70.6 2
02/08/2020 20:00 10.3 89 0.0 0 0.0 20.2 72.9 1
02/08/2020 20:10 10.2 89 0.0 0 0.0 20.6 74.1 0
02/08/2020 20:20 10.1 90 0.0 0 0.0 21.4 77.0 360
02/08/2020 20:30 10.0 90 0.0 0 0.0 21.3 76.8 359
02/08/2020 20:40 10.2 90 0.0 0 0.0 20.4 73.4 4
02/08/2020 20:50 9.9 91 0.0 0 0.0 20.4 73.4 3
02/08/2020 21:00 9.9 91 0.0 0 0.0 20.4 73.3 2
02/08/2020 21:10 9.8 90 0.0 0 0.0 21.1 75.9 2
02/08/2020 21:20 9.7 90 0.0 0 0.0 20.7 74.6 360
02/08/2020 21:30 9.8 89 0.0 0 0.0 20.9 75.4 0
02/08/2020 21:40 9.6 87 0.0 0 0.0 21.1 75.9 2
02/08/2020 21:50 9.7 89 0.0 0 0.0 20.4 73.5 1
02/08/2020 22:00 9.5 89 0.0 0 0.0 20.7 74.6 3
02/08/2020 22:10 9.5 89 0.0 0 0.0 20.9 75.1 4
02/08/2020 22:20 9.5 88 0.0 0 0.0 21.2 76.4 6
02/08/2020 22:30 9.5 88 0.0 0 0.0 20.9 75.3 8
02/08/2020 22:40 9.5 87 0.0 0 0.0 21.3 76.6 9
02/08/2020 22:50 9.5 86 0.0 0 0.0 21.3 76.8 11
02/08/2020 23:00 9.9 85 0.0 0 0.0 21.7 78.1 14
02/08/2020 23:10 9.7 85 0.0 0 0.0 22.3 80.4 16
02/08/2020 23:20 9.7 85 0.0 0 0.0 22.2 80.1 16
02/08/2020 23:30 9.7 85 0.0 0 0.0 21.6 77.8 14
02/08/2020 23:40 9.8 85 0.0 0 0.0 21.5 77.5 12
02/08/2020 23:50 9.6 86 0.0 0 0.0 21.0 75.4 10
Anterior Página 1 de 1 Siguiente
Los datos de precipitación registrados en estaciones que están en cumbres son inferiores a lo real, como consecuencia del efecto del viento y de la nieve.


NOTA: Tipo de datos según el color:
   - Valores diarios o 10 minutos correctos
   - Valores diarios calculados a partir de un número de datos 10 minutos menor que 144 y mayor que 120, o de un número de datos semihorarios menor que 48 y mayor que 40 (caso de las estaciones de INTIA y del Ministerio)
   - Valores diez minutos estimados


Contacto        Enlaces        Aviso legal